Terminal Aerodrome Forecast
Issued by NWS

Home | Current Version | Previous Version | Text Only | Print | Product List | Glossary On
Versions: 1 2 3 4 5 6 7 8 9 10 11 12 13 14 15 16 17 18 19 20 21 22 23 24 25 26 27 28 29 30 31 32 33 34 35 36 37 38 39 40 41 42 43 44 45
000
FTUS45 KGJT 031139
TAFDRO
TAF
KDRO 031139Z 0312/0412 24009KT P6SM VCSH FEW050 SCT080
     FM031400 13006KT P6SM VCSH OVC050
     FM032100 25015G25KT P6SM VCSH SCT040 OVC070
      TEMPO 0322/0402 5SM -SN BKN040
     FM040200 27007KT P6SM VCSH SCT040 OVC070
     FM040600 25004KT P6SM VCSH SCT040 BKN070=

USA.gov is the U.S. government's official web portal to all federal, state and local government web resources and services.